Time;durP1;ratioP1;P1;durP2;ratioP2;P2;SDS_P1;SDS_P2;PMS_P1;PMS_P2;Temp;Humidity;BMP_temperature;BMP_pressure;BME280_temperature;BME280_humidity;BME280_pressure;Samples;Min_cycle;Max_cycle;Signal;HPM_P1;HPM_P2
2023/01/30 00:01:14;;;;;;;1.60;1.40;;;3.90;98.20;;;;;;6173052;22;20858;-73
2023/01/30 00:03:41;;;;;;;1.70;1.40;;;3.90;98.20;;;;;;6227011;23;20921;-72
2023/01/30 00:06:08;;;;;;;1.67;1.37;;;3.90;98.20;;;;;;6172464;22;20445;-72
2023/01/30 00:08:35;;;;;;;1.63;1.40;;;4.00;98.20;;;;;;6218544;23;20443;-72
2023/01/30 00:11:06;;;;;;;1.70;1.50;;;4.00;98.20;;;;;;6170291;22;20440;-73
2023/01/30 00:13:34;;;;;;;1.63;1.30;;;4.00;98.20;;;;;;6220660;23;20430;-72
2023/01/30 00:16:01;;;;;;;1.60;1.40;;;4.00;98.20;;;;;;6170275;22;20420;-72
2023/01/30 00:18:28;;;;;;;1.60;1.40;;;4.00;98.20;;;;;;6231358;23;20694;-72
2023/01/30 00:20:58;;;;;;;1.70;1.47;;;4.00;98.20;;;;;;6166924;22;20446;-73
2023/01/30 00:23:26;;;;;;;3.23;3.03;;;4.00;98.20;;;;;;6223238;23;20447;-73
2023/01/30 00:25:54;;;;;;;1.67;1.40;;;4.10;98.20;;;;;;6166692;22;20503;-73
2023/01/30 00:28:22;;;;;;;1.60;1.27;;;4.10;98.20;;;;;;6224226;23;21001;-73
2023/01/30 00:30:49;;;;;;;1.67;1.50;;;4.10;98.20;;;;;;6164996;22;20420;-73
2023/01/30 00:33:17;;;;;;;1.67;1.40;;;4.10;98.20;;;;;;6226090;23;20430;-73
2023/01/30 00:35:44;;;;;;;1.63;1.37;;;4.10;98.20;;;;;;6179320;23;20934;-73
2023/01/30 00:38:11;;;;;;;1.70;1.40;;;4.10;98.20;;;;;;6213107;22;20506;-73
2023/01/30 00:40:38;;;;;;;1.70;1.40;;;4.20;98.20;;;;;;6178412;23;20426;-73
2023/01/30 00:48:39;;;;;;;1.63;1.40;;;4.30;98.20;;;;;;6217130;23;21046;-73
2023/01/30 00:51:06;;;;;;;1.60;1.30;;;4.30;98.20;;;;;;6170547;22;20434;-73
2023/01/30 00:53:33;;;;;;;1.60;1.30;;;4.40;98.20;;;;;;6219936;23;20451;-73
2023/01/30 00:56:00;;;;;;;1.60;1.30;;;4.40;98.20;;;;;;6168271;22;20452;-73
2023/01/30 00:58:27;;;;;;;1.60;1.30;;;4.40;98.20;;;;;;6221220;23;20435;-73
2023/01/30 01:00:56;;;;;;;1.70;1.43;;;4.40;98.20;;;;;;6166160;22;20452;-73
2023/01/30 01:03:23;;;;;;;1.70;1.40;;;4.40;98.20;;;;;;6223920;23;20448;-73
2023/01/30 01:05:50;;;;;;;1.70;1.40;;;4.50;98.20;;;;;;6170853;22;20419;-73
2023/01/30 01:08:17;;;;;;;1.70;1.40;;;4.50;98.20;;;;;;6225950;23;20450;-73
2023/01/30 01:10:44;;;;;;;1.60;1.40;;;4.50;98.20;;;;;;6178792;23;20453;-73
2023/01/30 01:13:11;;;;;;;1.70;1.33;;;4.50;98.20;;;;;;6213150;22;20467;-73
2023/01/30 01:15:38;;;;;;;2.23;2.03;;;4.50;98.20;;;;;;6179451;23;20420;-72
2023/01/30 01:18:07;;;;;;;1.70;1.50;;;4.50;98.20;;;;;;6212323;22;20508;-73
2023/01/30 01:20:34;;;;;;;1.60;1.30;;;4.50;98.20;;;;;;6178480;23;20422;-73
2023/01/30 01:23:00;;;;;;;1.70;1.40;;;4.60;98.20;;;;;;6212300;22;20442;-72
2023/01/30 01:25:27;;;;;;;1.70;1.40;;;4.60;98.20;;;;;;6179397;23;20846;-72
2023/01/30 01:27:55;;;;;;;1.70;1.50;;;4.60;98.20;;;;;;6212077;22;20543;-73
2023/01/30 01:30:21;;;;;;;1.70;1.40;;;4.60;98.20;;;;;;6179463;23;20430;-73
2023/01/30 01:32:48;;;;;;;2.90;2.70;;;4.70;98.20;;;;;;6213115;22;20500;-73
2023/01/30 01:35:18;;;;;;;1.67;1.40;;;4.70;98.20;;;;;;6179179;23;20419;-72
2023/01/30 01:37:45;;;;;;;1.63;1.30;;;4.70;98.20;;;;;;6210716;22;20454;-73
2023/01/30 01:43:02;;;;;;;1.70;1.40;;;4.70;98.20;;;;;;6212662;22;20967;-73
2023/01/30 01:45:29;;;;;;;1.67;1.40;;;4.70;98.20;;;;;;6180847;23;20515;-72
2023/01/30 01:48:02;;;;;;;1.60;1.30;;;4.80;98.20;;;;;;6213624;22;20449;-73
2023/01/30 01:50:40;;;;;;;1.60;1.30;;;4.80;98.20;;;;;;6180475;23;20492;-72
2023/01/30 01:53:08;;;;;;;1.63;1.37;;;4.80;98.20;;;;;;6214072;22;20441;-73
2023/01/30 01:55:35;;;;;;;1.60;1.33;;;4.80;98.20;;;;;;6180768;23;20430;-73
2023/01/30 01:58:06;;;;;;;2.97;2.77;;;4.80;98.20;;;;;;6213446;22;21200;-73
2023/01/30 02:00:34;;;;;;;1.63;1.30;;;4.80;98.20;;;;;;6180779;23;20668;-73
2023/01/30 02:03:06;;;;;;;1.63;1.30;;;4.80;98.20;;;;;;6214062;22;20783;-73
2023/01/30 02:05:37;;;;;;;1.60;1.40;;;4.80;98.20;;;;;;6180701;23;20487;-73
2023/01/30 02:08:08;;;;;;;1.70;1.40;;;4.90;98.20;;;;;;6213699;22;20557;-73
2023/01/30 02:10:42;;;;;;;1.70;1.40;;;4.80;98.20;;;;;;6180320;23;20770;-73
2023/01/30 02:13:09;;;;;;;1.60;1.40;;;4.80;98.20;;;;;;6214145;22;20849;-73
2023/01/30 02:15:36;;;;;;;1.70;1.60;;;4.90;98.20;;;;;;6181050;23;20426;-73
2023/01/30 02:18:03;;;;;;;1.60;1.37;;;4.90;98.20;;;;;;6213411;22;20456;-73
2023/01/30 02:20:42;;;;;;;1.60;1.30;;;4.90;98.20;;;;;;6179963;23;20420;-73
2023/01/30 02:23:38;;;;;;;2.00;1.80;;;4.90;98.20;;;;;;6214265;22;20443;-73
2023/01/30 02:26:38;;;;;;;2.33;2.13;;;4.90;98.20;;;;;;6172371;22;20408;-72
2023/01/30 02:29:39;;;;;;;1.60;1.30;;;4.90;98.20;;;;;;6207681;23;20526;-72
2023/01/30 02:32:14;;;;;;;1.67;1.40;;;4.90;98.20;;;;;;6196216;22;20449;-73
2023/01/30 02:34:50;;;;;;;1.70;1.33;;;4.90;98.20;;;;;;6193554;23;20410;-72
2023/01/30 02:37:29;;;;;;;1.70;1.40;;;4.90;98.20;;;;;;6192376;22;21090;-73
2023/01/30 02:40:15;;;;;;;1.60;1.30;;;4.90;98.20;;;;;;6186941;23;20564;-73
2023/01/30 02:42:48;;;;;;;1.63;1.40;;;4.80;98.20;;;;;;6212031;22;21178;-72
2023/01/30 02:45:22;;;;;;;1.70;1.50;;;4.90;98.20;;;;;;6180162;23;20408;-73
2023/01/30 02:47:57;;;;;;;1.60;1.30;;;4.90;98.20;;;;;;6212671;22;20453;-73
2023/01/30 02:50:27;;;;;;;1.60;1.30;;;4.90;98.20;;;;;;6181094;23;20431;-73
2023/01/30 02:52:55;;;;;;;1.70;1.40;;;4.90;98.20;;;;;;6214893;22;20445;-73
2023/01/30 02:55:24;;;;;;;1.70;1.50;;;4.90;98.20;;;;;;6181286;23;20498;-73
2023/01/30 02:57:51;;;;;;;1.67;1.40;;;4.90;98.20;;;;;;6214707;22;20450;-73
2023/01/30 03:00:24;;;;;;;1.70;1.47;;;4.90;98.20;;;;;;6181534;23;20424;-73
2023/01/30 03:03:18;;;;;;;1.67;1.40;;;4.90;98.20;;;;;;6215315;22;20521;-72
2023/01/30 03:06:01;;;;;;;1.80;1.70;;;4.90;98.20;;;;;;6180275;23;20466;-73
2023/01/30 03:08:34;;;;;;;1.60;1.30;;;4.90;98.20;;;;;;6163768;23;20436;-72
2023/01/30 03:11:04;;;;;;;1.70;1.60;;;5.00;98.20;;;;;;6171191;22;20408;-73
2023/01/30 03:13:44;;;;;;;1.63;1.30;;;5.00;98.20;;;;;;6221746;23;20544;-73
2023/01/30 03:16:15;;;;;;;1.63;1.40;;;5.00;98.20;;;;;;6174587;22;21070;-73
2023/01/30 03:18:44;;;;;;;1.70;1.40;;;5.00;98.20;;;;;;6216632;23;20467;-72
2023/01/30 03:21:12;;;;;;;1.70;1.40;;;5.10;98.20;;;;;;6174898;22;20446;-73
2023/01/30 03:23:39;;;;;;;1.70;1.43;;;5.10;98.20;;;;;;6218885;23;20416;-72
2023/01/30 03:26:11;;;;;;;1.70;1.40;;;5.10;98.20;;;;;;6172312;22;20897;-72
2023/01/30 03:28:38;;;;;;;1.70;1.43;;;5.10;98.20;;;;;;6218152;23;20479;-72
2023/01/30 03:31:05;;;;;;;4.90;4.33;;;5.10;98.20;;;;;;6171461;22;20424;-72
2023/01/30 03:33:32;;;;;;;1.70;1.47;;;5.10;98.20;;;;;;6220497;23;20934;-73
2023/01/30 03:36:00;;;;;;;1.67;1.30;;;5.20;98.20;;;;;;6177707;22;20434;-72
2023/01/30 03:38:27;;;;;;;1.70;1.40;;;5.20;98.20;;;;;;6222695;23;20538;-72
2023/01/30 03:40:54;;;;;;;2.93;2.73;;;5.20;98.20;;;;;;6166922;22;20426;-73
2023/01/30 03:43:21;;;;;;;1.63;1.30;;;5.20;98.20;;;;;;6224431;23;20580;-73
2023/01/30 03:45:47;;;;;;;1.63;1.30;;;5.20;98.20;;;;;;6171870;22;20921;-73
2023/01/30 03:48:14;;;;;;;1.60;1.40;;;5.20;98.20;;;;;;6226466;23;20526;-73
2023/01/30 03:50:41;;;;;;;1.60;1.30;;;5.20;98.20;;;;;;6178939;23;20508;-74
2023/01/30 03:53:09;;;;;;;1.63;1.30;;;5.30;98.20;;;;;;6212856;22;20476;-74
2023/01/30 03:55:36;;;;;;;1.70;1.40;;;5.30;98.20;;;;;;6179708;23;20420;-74
2023/01/30 03:58:03;;;;;;;1.60;1.30;;;5.30;98.20;;;;;;6212319;22;20526;-73
2023/01/30 04:00:30;;;;;;;1.63;1.40;;;5.30;98.20;;;;;;6179127;23;20420;-73
2023/01/30 04:02:57;;;;;;;1.60;1.30;;;5.30;98.20;;;;;;6212829;22;20448;-72
2023/01/30 04:05:25;;;;;;;1.70;1.47;;;5.30;98.20;;;;;;6188839;23;20424;-75
2023/01/30 04:07:52;;;;;;;1.70;1.37;;;5.30;98.20;;;;;;6211991;22;21019;-71
2023/01/30 04:10:20;;;;;;;1.67;1.40;;;5.30;98.20;;;;;;6179540;23;20521;-72
2023/01/30 04:12:47;;;;;;;1.60;1.30;;;5.30;98.20;;;;;;6212197;22;20441;-72
2023/01/30 04:15:14;;;;;;;9.33;3.20;;;5.30;98.20;;;;;;6189412;23;20422;-74
2023/01/30 04:17:43;;;;;;;1.70;1.40;;;5.30;98.20;;;;;;6210474;22;20446;-74
2023/01/30 04:20:10;;;;;;;1.70;1.30;;;5.30;98.20;;;;;;6180023;23;20478;-74
2023/01/30 04:22:37;;;;;;;1.60;1.30;;;5.30;98.20;;;;;;6211784;22;20470;-72
2023/01/30 04:25:05;;;;;;;1.97;1.77;;;5.30;98.20;;;;;;6181880;23;20428;-72
2023/01/30 04:27:33;;;;;;;1.70;1.47;;;5.30;98.20;;;;;;6206407;22;20446;-72
2023/01/30 04:30:00;;;;;;;1.63;1.40;;;5.30;98.20;;;;;;6184300;23;20427;-73
2023/01/30 04:32:27;;;;;;;1.60;1.20;;;5.30;98.20;;;;;;6204482;22;20875;-72
2023/01/30 04:34:54;;;;;;;1.63;1.40;;;5.30;98.20;;;;;;6186057;23;20416;-72
2023/01/30 04:37:21;;;;;;;1.67;1.33;;;5.30;98.20;;;;;;6201336;22;20453;-72
2023/01/30 04:39:48;;;;;;;1.63;1.30;;;5.30;98.20;;;;;;6188012;23;20485;-72
2023/01/30 04:42:15;;;;;;;1.60;1.30;;;5.30;98.20;;;;;;6199952;22;20470;-72
2023/01/30 04:44:43;;;;;;;1.60;1.30;;;5.30;98.20;;;;;;6191164;23;20919;-74
2023/01/30 04:47:11;;;;;;;1.70;1.50;;;5.30;98.20;;;;;;6196662;22;20450;-72
2023/01/30 04:49:37;;;;;;;1.63;1.30;;;5.30;98.20;;;;;;6192837;23;20455;-72
2023/01/30 04:52:04;;;;;;;1.70;1.43;;;5.30;98.20;;;;;;6194173;22;21068;-73
2023/01/30 04:54:31;;;;;;;2.20;2.00;;;5.40;98.20;;;;;;6206068;23;20444;-73
2023/01/30 04:56:59;;;;;;;2.10;1.90;;;5.40;98.20;;;;;;6188710;22;20458;-75
2023/01/30 04:59:26;;;;;;;1.63;1.33;;;5.40;98.20;;;;;;6188563;22;20844;-73
2023/01/30 05:01:55;;;;;;;2.17;2.00;;;5.40;98.20;;;;;;6189705;22;20450;-73
2023/01/30 05:04:22;;;;;;;1.70;1.30;;;5.40;98.20;;;;;;6198858;23;20428;-75
2023/01/30 05:06:49;;;;;;;1.70;1.50;;;5.40;98.20;;;;;;6193774;22;20453;-74
2023/01/30 05:09:16;;;;;;;1.70;1.40;;;5.40;98.20;;;;;;6202110;23;20440;-73
2023/01/30 05:11:43;;;;;;;1.70;1.40;;;5.40;98.20;;;;;;6184848;22;20491;-73
2023/01/30 05:14:10;;;;;;;1.70;1.50;;;5.40;98.20;;;;;;6204403;23;20451;-73
2023/01/30 05:16:37;;;;;;;1.63;1.30;;;5.40;98.20;;;;;;6183590;22;20446;-73
2023/01/30 05:19:05;;;;;;;3.80;3.50;;;5.40;98.20;;;;;;6204131;23;20443;-74
2023/01/30 05:21:32;;;;;;;1.70;1.40;;;5.40;98.20;;;;;;6182637;22;20476;-73
2023/01/30 05:23:59;;;;;;;1.67;1.30;;;5.40;98.20;;;;;;6205211;23;20419;-73
2023/01/30 05:26:26;;;;;;;1.63;1.30;;;5.40;98.20;;;;;;6176101;22;20450;-73
2023/01/30 05:28:55;;;;;;;1.60;1.20;;;5.40;98.20;;;;;;6207537;23;20440;-74
2023/01/30 05:31:23;;;;;;;1.67;1.33;;;5.40;98.20;;;;;;6175615;22;20991;-74
2023/01/30 05:33:51;;;;;;;1.60;1.30;;;5.40;98.20;;;;;;6208567;23;20498;-74
2023/01/30 05:36:22;;;;;;;1.90;1.67;;;5.40;98.20;;;;;;6172166;22;20442;-73
2023/01/30 05:38:49;;;;;;;1.70;1.50;;;5.40;98.20;;;;;;6209546;23;20486;-73
2023/01/30 05:41:17;;;;;;;1.70;1.50;;;5.50;98.20;;;;;;6174634;22;20442;-73
2023/01/30 05:43:44;;;;;;;1.70;1.53;;;5.50;98.20;;;;;;6210454;23;20447;-73
2023/01/30 05:46:12;;;;;;;1.67;1.40;;;5.50;98.20;;;;;;6171821;22;20449;-74
2023/01/30 05:48:40;;;;;;;1.63;1.30;;;5.50;98.20;;;;;;6214200;23;20459;-73
2023/01/30 05:51:15;;;;;;;1.60;1.30;;;5.50;98.20;;;;;;6170266;22;20441;-73
2023/01/30 05:53:43;;;;;;;1.63;1.30;;;5.50;98.20;;;;;;6213811;23;20485;-73
2023/01/30 05:56:10;;;;;;;1.60;1.27;;;5.60;98.20;;;;;;6171949;22;21164;-73
2023/01/30 05:58:37;;;;;;;1.60;1.30;;;5.60;98.20;;;;;;6226329;23;20447;-73
2023/01/30 06:01:07;;;;;;;1.60;1.23;;;5.60;98.20;;;;;;6168928;22;20455;-73
2023/01/30 06:03:34;;;;;;;1.60;1.30;;;5.60;98.20;;;;;;6218028;23;20479;-73
2023/01/30 06:06:02;;;;;;;1.60;1.30;;;5.60;98.20;;;;;;6168901;22;20913;-73
2023/01/30 06:08:29;;;;;;;1.60;1.30;;;5.70;98.20;;;;;;6220831;23;20440;-75
2023/01/30 06:11:00;;;;;;;1.70;1.50;;;5.70;98.20;;;;;;6167357;22;20478;-77
2023/01/30 06:13:27;;;;;;;1.60;1.30;;;5.70;98.20;;;;;;6222076;23;20470;-75
2023/01/30 06:15:54;;;;;;;1.70;1.60;;;5.80;98.20;;;;;;6167612;22;20506;-74
2023/01/30 06:18:27;;;;;;;1.60;1.30;;;5.80;98.20;;;;;;6224910;23;21005;-74
2023/01/30 06:20:55;;;;;;;1.70;1.50;;;5.80;98.20;;;;;;6163611;22;20420;-74
2023/01/30 06:23:24;;;;;;;3.03;2.73;;;5.80;98.20;;;;;;6224159;23;20416;-74
2023/01/30 06:25:52;;;;;;;1.70;1.40;;;5.80;98.20;;;;;;6165604;22;20447;-73
2023/01/30 06:28:21;;;;;;;1.70;1.43;;;5.80;98.20;;;;;;6223383;23;20439;-75
2023/01/30 06:30:48;;;;;;;1.60;1.27;;;5.90;98.20;;;;;;6173400;22;20460;-76
2023/01/30 06:33:15;;;;;;;1.60;1.30;;;5.80;98.20;;;;;;6228931;23;20447;-75
2023/01/30 06:35:43;;;;;;;1.63;1.40;;;5.90;98.20;;;;;;6181950;23;20419;-73
2023/01/30 06:38:13;;;;;;;1.63;1.30;;;5.90;98.20;;;;;;6227773;22;20679;-74
2023/01/30 06:40:40;;;;;;;1.70;1.40;;;5.90;98.20;;;;;;6182047;23;20426;-75
2023/01/30 06:43:07;;;;;;;1.70;1.40;;;5.90;98.20;;;;;;6215500;22;20442;-75
2023/01/30 06:45:36;;;;;;;1.70;1.50;;;5.90;98.20;;;;;;6180233;23;20419;-76
2023/01/30 06:48:03;;;;;;;1.67;1.30;;;6.00;98.20;;;;;;6215303;22;20970;-75
2023/01/30 06:50:30;;;;;;;1.70;1.30;;;6.00;98.20;;;;;;6179796;23;20721;-77
2023/01/30 06:52:58;;;;;;;1.67;1.30;;;6.00;98.20;;;;;;6215431;22;20445;-77
2023/01/30 06:55:27;;;;;;;1.63;1.30;;;6.00;98.20;;;;;;6191666;23;20495;-76
2023/01/30 06:58:02;;;;;;;1.60;1.30;;;6.00;98.20;;;;;;6213584;22;20541;-76
2023/01/30 07:00:30;;;;;;;1.63;1.30;;;6.00;98.20;;;;;;6180820;23;20519;-79
2023/01/30 07:02:58;;;;;;;1.70;1.30;;;6.00;98.20;;;;;;6214925;22;20466;-75
2023/01/30 07:05:25;;;;;;;1.60;1.30;;;6.00;98.20;;;;;;6180009;23;20420;-74
2023/01/30 07:07:53;;;;;;;1.70;1.60;;;6.00;98.20;;;;;;6212666;22;20715;-75
2023/01/30 07:10:20;;;;;;;1.60;1.20;;;6.00;98.20;;;;;;6178732;23;20504;-74
2023/01/30 07:12:47;;;;;;;1.60;1.30;;;6.00;98.20;;;;;;6212728;22;20887;-76
2023/01/30 07:15:14;;;;;;;1.60;1.30;;;6.00;98.20;;;;;;6179590;23;20526;-76
2023/01/30 07:17:42;;;;;;;1.60;1.30;;;6.00;98.20;;;;;;6213888;22;20504;-75
2023/01/30 07:20:12;;;;;;;1.67;1.30;;;6.00;98.20;;;;;;6183419;23;20424;-76
2023/01/30 07:22:39;;;;;;;1.67;1.33;;;6.10;98.20;;;;;;6211043;22;20446;-74
2023/01/30 07:25:07;;;;;;;1.60;1.30;;;6.10;98.20;;;;;;6193913;23;20471;-76
2023/01/30 07:27:34;;;;;;;1.60;1.30;;;6.10;98.20;;;;;;6210089;22;20449;-76
2023/01/30 07:30:02;;;;;;;1.67;1.30;;;6.10;98.20;;;;;;6186223;23;20424;-75
2023/01/30 07:32:29;;;;;;;1.60;1.30;;;6.10;98.20;;;;;;6208169;22;20548;-75
2023/01/30 07:34:57;;;;;;;1.60;1.30;;;6.10;98.20;;;;;;6187368;23;20836;-75
2023/01/30 07:37:25;;;;;;;1.60;1.30;;;6.10;98.20;;;;;;6204733;22;21002;-77
2023/01/30 07:39:52;;;;;;;1.60;1.30;;;6.10;98.20;;;;;;6189716;23;20483;-75
2023/01/30 07:42:20;;;;;;;1.60;1.30;;;6.10;98.20;;;;;;6203755;22;20450;-74
2023/01/30 07:44:47;;;;;;;1.63;1.30;;;6.10;98.20;;;;;;6192078;23;20747;-76
2023/01/30 07:47:14;;;;;;;1.70;1.30;;;6.10;98.20;;;;;;6200164;22;20845;-75
2023/01/30 07:49:41;;;;;;;1.70;1.40;;;6.20;98.20;;;;;;6192817;23;20477;-75
2023/01/30 07:52:09;;;;;;;1.60;1.30;;;6.20;98.20;;;;;;6196985;22;20450;-74
2023/01/30 07:54:38;;;;;;;1.60;1.30;;;6.20;98.20;;;;;;6194012;23;20466;-74
2023/01/30 07:57:05;;;;;;;1.63;1.30;;;6.20;98.20;;;;;;6194105;22;21078;-74
2023/01/30 07:59:33;;;;;;;1.70;1.40;;;6.20;98.20;;;;;;6193170;23;20946;-74
2023/01/30 08:02:01;;;;;;;1.63;1.30;;;6.20;98.20;;;;;;6193463;22;20505;-74
2023/01/30 08:04:28;;;;;;;1.63;1.30;;;6.20;98.20;;;;;;6197343;23;20422;-74
2023/01/30 08:06:56;;;;;;;1.60;1.30;;;6.20;98.20;;;;;;6190648;22;20445;-74
2023/01/30 08:09:24;;;;;;;1.63;1.30;;;6.20;98.20;;;;;;6199018;23;20535;-73
2023/01/30 08:11:53;;;;;;;1.60;1.30;;;6.20;98.20;;;;;;6189630;22;20541;-74
2023/01/30 08:14:20;;;;;;;1.60;1.30;;;6.30;98.20;;;;;;6201142;23;20444;-74
2023/01/30 08:16:47;;;;;;;1.60;1.20;;;6.30;98.20;;;;;;6194234;22;20482;-73
2023/01/30 08:19:14;;;;;;;1.67;1.30;;;6.30;98.20;;;;;;6202720;23;20439;-75
2023/01/30 08:21:42;;;;;;;1.63;1.23;;;6.30;98.20;;;;;;6188175;22;20445;-76
2023/01/30 08:24:09;;;;;;;1.70;1.40;;;6.30;98.20;;;;;;6206948;23;20915;-74
2023/01/30 08:26:38;;;;;;;1.60;1.20;;;6.30;98.20;;;;;;6185116;22;21069;-75
2023/01/30 08:29:07;;;;;;;1.60;1.20;;;6.20;98.20;;;;;;6206482;23;20882;-75
2023/01/30 08:31:35;;;;;;;2.23;2.03;;;6.20;98.20;;;;;;6183148;22;21069;-78
2023/01/30 08:34:02;;;;;;;1.63;1.30;;;6.20;98.20;;;;;;6206303;23;20475;-75
2023/01/30 08:36:30;;;;;;;1.70;1.30;;;6.30;98.20;;;;;;6181256;22;20450;-74
2023/01/30 08:38:57;;;;;;;1.63;1.30;;;6.30;98.20;;;;;;6210390;23;20443;-72
2023/01/30 08:41:27;;;;;;;1.60;1.30;;;6.40;98.20;;;;;;6180386;22;20470;-76
2023/01/30 08:43:54;;;;;;;1.67;1.30;;;6.40;98.20;;;;;;6211070;23;20955;-75
2023/01/30 08:46:23;;;;;;;1.63;1.30;;;6.50;98.20;;;;;;6185564;22;20449;-77
2023/01/30 08:48:50;;;;;;;1.60;1.20;;;6.70;98.20;;;;;;6212345;23;20448;-74
2023/01/30 08:51:19;;;;;;;1.67;1.23;;;6.70;98.20;;;;;;6177286;22;20507;-74
2023/01/30 08:53:46;;;;;;;1.63;1.30;;;6.80;98.20;;;;;;6213084;23;20444;-74
2023/01/30 08:56:14;;;;;;;1.67;1.30;;;6.90;98.20;;;;;;6173977;22;20452;-75
2023/01/30 08:58:42;;;;;;;1.60;1.30;;;7.00;98.20;;;;;;6217751;23;20439;-74
2023/01/30 09:01:10;;;;;;;1.70;1.30;;;7.00;98.20;;;;;;6173745;22;20469;-74
2023/01/30 09:03:38;;;;;;;1.70;1.40;;;7.10;98.20;;;;;;6218850;23;20428;-76
2023/01/30 09:06:07;;;;;;;1.60;1.30;;;7.10;98.20;;;;;;6172331;22;20420;-76
2023/01/30 09:08:34;;;;;;;1.60;1.30;;;7.20;98.20;;;;;;6228868;23;20467;-74
2023/01/30 09:11:04;;;;;;;1.67;1.30;;;7.30;98.20;;;;;;6169224;22;20890;-75
2023/01/30 09:13:33;;;;;;;1.60;1.20;;;7.40;98.20;;;;;;6218936;23;20420;-74
2023/01/30 09:16:01;;;;;;;1.63;1.30;;;7.50;98.20;;;;;;6168576;22;20810;-75
2023/01/30 09:18:28;;;;;;;1.63;1.20;;;7.60;98.20;;;;;;6222372;23;20493;-75
2023/01/30 09:21:04;;;;;;;1.70;1.40;;;7.70;98.20;;;;;;6165867;22;20802;-73
2023/01/30 09:23:32;;;;;;;1.60;1.20;;;7.80;98.20;;;;;;6219661;23;20403;-73
2023/01/30 09:26:01;;;;;;;1.63;1.20;;;7.90;98.20;;;;;;6168363;22;20754;-73
2023/01/30 09:28:28;;;;;;;1.60;1.20;;;7.90;98.20;;;;;;6221745;23;20444;-74
2023/01/30 09:30:58;;;;;;;1.60;1.30;;;7.90;98.20;;;;;;6166728;22;20420;-73
2023/01/30 09:33:26;;;;;;;1.60;1.30;;;7.90;98.20;;;;;;6222221;23;20731;-73
2023/01/30 09:35:53;;;;;;;1.67;1.30;;;7.90;98.20;;;;;;6166062;22;20498;-74
2023/01/30 09:38:22;;;;;;;1.60;1.30;;;8.00;98.20;;;;;;6223582;23;20475;-73
2023/01/30 09:41:06;;;;;;;1.63;1.30;;;8.00;98.20;;;;;;6164639;22;20420;-73
2023/01/30 09:43:53;;;;;;;1.63;1.20;;;8.00;98.20;;;;;;6219973;23;20455;-73
2023/01/30 09:46:31;;;;;;;1.70;1.50;;;8.10;98.20;;;;;;6177782;22;20718;-73
2023/01/30 09:49:08;;;;;;;1.70;1.50;;;8.10;98.20;;;;;;6208963;23;20455;-73
2023/01/30 09:51:45;;;;;;;1.67;1.27;;;8.10;98.20;;;;;;6183928;22;20445;-74
2023/01/30 09:54:23;;;;;;;1.60;1.20;;;8.10;98.20;;;;;;6203040;23;20427;-73
2023/01/30 09:56:58;;;;;;;1.60;1.20;;;8.10;98.20;;;;;;6188064;22;20711;-73
2023/01/30 09:59:31;;;;;;;1.70;1.40;;;8.20;98.20;;;;;;6197594;23;20748;-76
2023/01/30 10:02:05;;;;;;;1.60;1.20;;;8.20;98.20;;;;;;6191472;22;20492;-73
2023/01/30 10:04:35;;;;;;;1.60;1.20;;;8.30;98.20;;;;;;6194822;23;20400;-73
2023/01/30 10:07:15;;;;;;;1.63;1.20;;;8.40;98.20;;;;;;6200184;22;20969;-73
2023/01/30 10:09:51;;;;;;;1.60;1.20;;;8.50;98.20;;;;;;6192592;23;20439;-73
2023/01/30 10:12:36;;;;;;;1.63;1.20;;;8.60;98.20;;;;;;6203177;22;20782;-73
2023/01/30 10:15:19;;;;;;;1.60;1.20;;;8.60;98.20;;;;;;6184068;23;20506;-72
2023/01/30 10:17:58;;;;;;;1.60;1.10;;;8.60;98.20;;;;;;6213191;22;20450;-72
2023/01/30 10:20:35;;;;;;;1.67;1.20;;;8.60;98.20;;;;;;6179802;23;20951;-74
2023/01/30 10:23:49;;;;;;;1.60;1.20;;;8.50;98.20;;;;;;6216000;22;20445;-74
2023/01/30 10:26:20;;;;;;;1.60;1.20;;;8.40;98.20;;;;;;6103324;23;20818;-73
2023/01/30 10:28:58;;;;;;;1.67;1.20;;;8.30;98.20;;;;;;6177494;23;20674;-72
2023/01/30 10:31:29;;;;;;;1.60;1.20;;;8.20;98.20;;;;;;6181694;22;20529;-72
2023/01/30 10:34:01;;;;;;;1.60;1.20;;;8.10;98.20;;;;;;6212188;23;20404;-72
2023/01/30 10:36:36;;;;;;;1.60;1.20;;;8.10;98.20;;;;;;6181783;22;20449;-73
2023/01/30 10:39:12;;;;;;;1.60;1.20;;;8.10;98.20;;;;;;6209115;23;20971;-72
2023/01/30 10:41:51;;;;;;;1.67;1.23;;;8.00;98.20;;;;;;6186512;22;20495;-73
2023/01/30 10:44:23;;;;;;;1.60;1.20;;;8.00;98.20;;;;;;6202520;23;20818;-73
2023/01/30 10:47:07;;;;;;;1.60;1.20;;;7.90;98.20;;;;;;6190199;22;20747;-73
2023/01/30 10:49:41;;;;;;;1.60;1.20;;;7.90;98.20;;;;;;6195112;23;20467;-73
2023/01/30 10:52:26;;;;;;;1.63;1.20;;;7.90;98.20;;;;;;6202574;22;20474;-72
2023/01/30 10:55:01;;;;;;;1.60;1.20;;;7.90;98.20;;;;;;6188014;23;20466;-73
2023/01/30 10:57:49;;;;;;;1.67;1.23;;;7.90;98.20;;;;;;6206018;22;20456;-73
2023/01/30 11:00:25;;;;;;;1.63;1.27;;;7.80;98.20;;;;;;6179926;23;20404;-73
2023/01/30 11:03:04;;;;;;;1.63;1.20;;;7.80;98.20;;;;;;6212429;22;20445;-72
2023/01/30 11:05:40;;;;;;;1.60;1.20;;;7.80;98.20;;;;;;6179299;23;20416;-72
2023/01/30 11:08:17;;;;;;;2.53;2.33;;;7.80;98.20;;;;;;6211218;22;20793;-72
2023/01/30 11:10:44;;;;;;;1.70;1.27;;;7.80;98.20;;;;;;6178427;23;20444;-73
2023/01/30 11:13:17;;;;;;;1.60;1.20;;;7.80;98.20;;;;;;6213713;22;20549;-75
2023/01/30 11:15:47;;;;;;;1.63;1.20;;;7.70;98.20;;;;;;6188966;23;20447;-77
2023/01/30 11:18:15;;;;;;;1.60;1.20;;;7.70;98.20;;;;;;6161650;23;21310;-73
2023/01/30 11:20:45;;;;;;;1.60;1.20;;;7.70;98.20;;;;;;6190992;23;20423;-77
2023/01/30 11:23:25;;;;;;;1.60;1.30;;;7.70;98.20;;;;;;6215224;22;20450;-74
2023/01/30 11:25:55;;;;;;;1.60;1.20;;;7.60;98.20;;;;;;6176210;22;20407;-74
2023/01/30 11:28:25;;;;;;;1.63;1.30;;;7.60;98.20;;;;;;6223275;23;20471;-77
2023/01/30 11:30:56;;;;;;;1.60;1.20;;;7.60;98.20;;;;;;6175445;22;20412;-76
2023/01/30 11:33:31;;;;;;;1.67;1.27;;;7.60;98.20;;;;;;6233906;23;20412;-72
2023/01/30 11:36:00;;;;;;;1.60;1.20;;;7.70;98.20;;;;;;6168472;22;20431;-74
2023/01/30 11:38:29;;;;;;;1.60;1.20;;;7.70;98.20;;;;;;6222153;23;20494;-74
2023/01/30 11:41:05;;;;;;;1.60;1.20;;;7.80;98.20;;;;;;6177210;22;20850;-75
2023/01/30 11:43:38;;;;;;;1.63;1.17;;;7.80;98.20;;;;;;6220184;23;20419;-76
2023/01/30 11:46:08;;;;;;;1.60;1.20;;;7.90;98.20;;;;;;6169849;22;20415;-74
2023/01/30 11:48:42;;;;;;;5.50;2.60;;;7.90;98.20;;;;;;6228972;23;20939;-75
2023/01/30 11:51:11;;;;;;;1.60;1.20;;;8.00;98.20;;;;;;6172559;22;20448;-74
2023/01/30 11:53:41;;;;;;;1.60;1.20;;;8.00;98.20;;;;;;6217835;23;20424;-74
2023/01/30 11:56:15;;;;;;;1.70;1.40;;;8.00;98.20;;;;;;6172661;22;20434;-72
2023/01/30 11:58:48;;;;;;;1.60;1.10;;;8.00;98.20;;;;;;6225287;23;20454;-72
2023/01/30 12:01:17;;;;;;;1.67;1.30;;;8.00;98.20;;;;;;6174682;22;20446;-71
2023/01/30 12:03:48;;;;;;;1.67;1.33;;;8.00;98.20;;;;;;6213016;23;20511;-73
2023/01/30 12:06:23;;;;;;;1.60;1.20;;;7.90;98.20;;;;;;6166660;22;20451;-74
2023/01/30 12:08:53;;;;;;;1.60;1.20;;;7.90;98.20;;;;;;6210432;23;21109;-74
2023/01/30 12:11:41;;;;;;;1.60;1.20;;;7.90;98.20;;;;;;6181983;22;20504;-73
2023/01/30 12:14:19;;;;;;;1.70;1.40;;;7.90;98.20;;;;;;6193900;22;20454;-73
2023/01/30 12:16:56;;;;;;;1.67;1.30;;;7.80;98.20;;;;;;6184585;22;20446;-73
2023/01/30 12:19:40;;;;;;;1.60;1.10;;;7.80;98.20;;;;;;6206718;23;20436;-73
2023/01/30 12:22:19;;;;;;;1.60;1.30;;;7.80;98.20;;;;;;6192804;22;20608;-72
2023/01/30 12:24:55;;;;;;;1.60;1.20;;;7.80;98.20;;;;;;6204672;23;20416;-74
2023/01/30 12:27:28;;;;;;;1.60;1.20;;;7.80;98.20;;;;;;6202152;22;20457;-74
2023/01/30 12:30:04;;;;;;;1.60;1.20;;;7.80;98.20;;;;;;6184953;23;20436;-74
2023/01/30 12:32:33;;;;;;;1.67;1.30;;;7.80;98.20;;;;;;6208647;22;20450;-73
2023/01/30 12:35:02;;;;;;;2.00;1.80;;;7.80;98.20;;;;;;6183674;23;21036;-75
2023/01/30 12:37:43;;;;;;;1.60;1.20;;;7.80;98.20;;;;;;6200959;22;20473;-72
2023/01/30 12:40:20;;;;;;;1.60;1.20;;;7.80;98.20;;;;;;6175668;23;20416;-73
2023/01/30 12:43:19;;;;;;;1.67;1.30;;;7.90;98.20;;;;;;6209085;22;20450;-74
2023/01/30 12:45:59;;;;;;;1.60;1.10;;;7.90;98.20;;;;;;6176103;23;20400;-74
2023/01/30 12:49:02;;;;;;;1.70;1.50;;;7.90;98.20;;;;;;6158145;23;20440;-73
2023/01/30 12:51:48;;;;;;;1.60;1.20;;;8.00;98.20;;;;;;6176121;22;20443;-73
2023/01/30 12:54:30;;;;;;;1.63;1.20;;;8.00;98.20;;;;;;6197830;23;20761;-72
2023/01/30 12:57:11;;;;;;;1.60;1.20;;;8.00;98.20;;;;;;6187932;22;20446;-72
2023/01/30 12:59:49;;;;;;;1.60;1.20;;;8.10;98.20;;;;;;6190723;23;20444;-74
2023/01/30 13:02:48;;;;;;;1.60;1.10;;;8.20;98.20;;;;;;6200811;22;20484;-73
2023/01/30 13:05:29;;;;;;;1.60;1.20;;;8.20;98.20;;;;;;6162377;23;20424;-72
2023/01/30 13:08:10;;;;;;;1.63;1.30;;;8.30;98.20;;;;;;6206568;22;20484;-72
2023/01/30 13:10:44;;;;;;;1.60;1.20;;;8.30;98.20;;;;;;6175370;23;20404;-72
2023/01/30 13:13:21;;;;;;;1.63;1.20;;;8.30;98.20;;;;;;6208694;22;20444;-72
2023/01/30 13:15:58;;;;;;;1.60;1.20;;;8.30;98.20;;;;;;6164926;22;20890;-72
2023/01/30 13:18:34;;;;;;;1.60;1.10;;;8.30;98.20;;;;;;6217932;22;20446;-73
2023/01/30 13:21:54;;;;;;;;;;;;;;;;;;;;;
2023/01/30 13:28:30;;;;;;;;;;;;;;;;;;;;;
2023/01/30 13:31:37;;;;;;;;;;;;;;;;;;;;;
2023/01/30 14:21:24;;;;;;;;;;;;;;;;;;;;;
2023/01/30 14:30:30;;;;;;;;;;;;;;;;;;;;;